Meath Environmental Platform

Observations

Time Sensor AQI SAQ Temp °C Hum % Pres Pa CO μg/m³ H₂S μg/m³ NO μg/m³ NO₂ μg/m³ O₃ μg/m³ SO₂ μg/m³ CO₂e PPM VOC PPM PM1 μg/m³ PM2.5 μg/m³ PM4 μg/m³ PM10 μg/m³ TPS µm
Wednesday 12 August 2026
02:58 Trim Patrick St 2 18.7 69 105,866 0 2.22 1.3 13.06 36.64 0 5.43 9.58 10.54
02:57 Trim Market St 2 19.4 64 57,498 0.03 0 1.26 12.74 68.34 0 2.14 3.83 6.87
02:57 Trim Patrick St 2 18.7 67 105,022 0 4.66 1.34 20.82 54.63 0 4.57 9.01 9.91
02:56 Trim Patrick St 2 18.7 67 104,000 0 5.66 1.34 26.57 45.27 0 4.57 8.96 9.85
02:55 Trim Market St 2 19.4 64 57,496 0.03 0 1.27 13.57 55.63 0 2.14 3.34 4.88
02:55 Trim Patrick St 2 18.7 67 102,879 0 5.34 1.34 20.86 50.33 0 6.29 10.41 11.45
02:54 Trim Patrick St 2 18.7 68 101,807 0 5.74 1.32 38.17 53.87 0 4.57 8.89 9.78
02:53 Trim Market St 2 19.4 64 57,499 0.03 0 1.27 14.43 66.77 0 2.14 4.33 7.53
02:53 Trim Patrick St 2 18.7 68 100,429 0 4.16 1.34 13 39.18 0.08 4.57 8.91 9.8
02:52 Trim Patrick St 2 18.7 69 99,472 0 6.66 1.31 33.8 55.66 0 4.57 8.86 9.75
02:51 Trim Market St 2 19.4 64 57,514 0.03 0 1.3 12.82 66.14 0 2.14 3.84 5.54
02:51 Trim Patrick St 2 18.7 68 98,247 0 5.08 1.32 24.61 51.57 0.06 4.57 8.17 8.98
02:50 Trim Market St 2 19.4 64 57,520 0.02 0 1.36 23.38 59.57 0 2.14 3.35 6.2
02:50 Trim Patrick St 2 18.7 68 97,318 0 4.66 1.34 23.76 39.94 0 4.57 8.93 9.83
02:49 Trim Patrick St 2 18.7 68 96,517 0 5.48 1.33 29.02 43.32 0.9 5.43 8.93 9.83
02:48 Trim Patrick St 2 18.7 67 95,634 0 6.34 1.31 20.51 40.27 0 3.71 8.23 9.05
02:47 Trim Patrick St 2 18.8 66 94,589 0 6.65 1.27 37.43 52.06 0.04 6.29 11.28 12.41
02:46 Trim Patrick St 2 18.7 68 93,273 0 5.82 1.32 26.22 53.56 0.52 4.57 8.22 9.04
02:45 Trim Patrick St 2 18.7 68 92,452 0 5.19 1.32 27.86 41.97 0 5.43 9.63 10.59
02:44 Trim Patrick St 2 18.7 68 91,586 0 3.74 1.32 22.98 38.52 0 3.71 8.19 9.01